CMA CGM Africa Two — C6YR9 — position and weather

sailwx.info

Track history (hours):
 
Tides and Currents Weather Stations Pressure Air Temp Water Temp Dewpoint Dewpoint Depression Visibility Wind Speed Wind Dir Waves Ship Positions

CMA CGM Africa Two

Last reported at 2017-Nov-23 23:49 UTC. Time now 2017-Nov-24 02:22 UTC.
Position N 39°22' W 009°49'.

Length 227 m; draft 8.7 m.

Type: Ship (hazmat cat A). MMSI: 311043300.

Date/timePositionNaut miles runAvg speedWind from/ knotsBaromVisibWave heightAir tempDewpointWater temp
2017-Nov-23 23:49N 39°22' W 009°49'413.0
2017-Nov-23 23:30N 39°18' W 009°49'713.4
2017-Nov-23 23:00N 39°12' W 009°50'713.6
2017-Nov-23 22:30N 39°05' W 009°51'713.4
2017-Nov-23 22:00N 38°58' W 009°51'713.5
2017-Nov-23 21:31N 38°52' W 009°51'713.4
2017-Nov-23 21:00N 38°45' W 009°52'713.1
2017-Nov-23 20:30N 38°39' W 009°50'713.2
2017-Nov-23 20:00N 38°32' W 009°48'612.9
2017-Nov-23 19:30N 38°26' W 009°46'713.2
2017-Nov-23 19:01N 38°19' W 009°45'713.1
2017-Nov-23 18:30N 38°13' W 009°43'713.3
2017-Nov-23 18:00N 38°06' W 009°41'713.3
2017-Nov-23 17:30N 37°60' W 009°39'813.4
2017-Nov-23 16:56N 37°53' W 009°37'613.4
2017-Nov-23 16:29N 37°47' W 009°35'613.3
2017-Nov-23 16:00N 37°41' W 009°33'6712.6
2017-Nov-23 10:43N 36°41' W 008°56'3115.0
2017-Nov-23 08:40N 36°30' W 008°20'313.4
2017-Nov-23 08:29N 36°29' W 008°18'713.9
2017-Nov-23 07:57N 36°27' W 008°09'713.5
2017-Nov-23 07:26N 36°24' W 008°01'713.2
2017-Nov-23 06:53N 36°22' W 007°52'613.3
2017-Nov-23 06:27N 36°20' W 007°46'1213.6
2017-Nov-23 05:35N 36°16' W 007°32'213.4
2017-Nov-23 05:28N 36°15' W 007°30'713.5
2017-Nov-23 04:55N 36°13' W 007°21'713.3
2017-Nov-23 04:25N 36°12' W 007°13'1613.5
2017-Nov-23 03:16N 36°06' W 006°55'4113.8
2017-Nov-23 00:19N 35°57' W 006°06'2614.2
2017-Nov-22 22:31N 35°58' W 005°35'012.3
2017-Nov-22 22:30N 35°58' W 005°35'612.8
2017-Nov-22 22:00N 36°00' W 005°27'611.9
2017-Nov-22 21:30N 36°06' W 005°24'2 1.5
2017-Nov-22 19:54N 36°08' W 005°25'0 0.0
2017-Nov-22 19:30N 36°08' W 005°25'  
2017-Nov-19 23:19N 29°15' W 012°36'1512.6
2017-Nov-19 22:06N 29°02' W 012°46'4812.7
2017-Nov-19 18:20N 28°21' W 013°15'512.9
2017-Nov-19 17:59N 28°18' W 013°18'1012.7
2017-Nov-19 17:14N 28°10' W 013°23'312.4
2017-Nov-19 16:59N 28°07' W 013°25'812.2
2017-Nov-19 16:19N 27°60' W 013°30'412.2
2017-Nov-19 16:00N 27°57' W 013°33'612.3
2017-Nov-19 15:30N 27°53' W 013°38'612.1
2017-Nov-19 15:00N 27°48' W 013°42'612.5
2017-Nov-19 14:30N 27°44' W 013°47'612.8
2017-Nov-19 14:00N 27°39' W 013°52'812.9
2017-Nov-19 13:24N 27°34' W 013°58'513.0
2017-Nov-19 13:00N 27°30' W 014°02'  
Track history (hours):
 
Tides and Currents Weather Stations Pressure Air Temp Water Temp Dewpoint Dewpoint Depression Visibility Wind Speed Wind Dir Waves Ship Positions

CMA CGM Africa Two

Last reported at 2017-Nov-23 23:49 UTC. Time now 2017-Nov-24 02:22 UTC.
Position N 39°22' W 009°49'.

Length 227 m; draft 8.7 m.

Type: Ship (hazmat cat A). MMSI: 311043300.

Date/timePositionNaut miles runAvg speedWind from/ knotsBaromVisibWave heightAir tempDewpointWater temp
2017-Nov-23 23:49N 39°22' W 009°49'413.0
2017-Nov-23 23:30N 39°18' W 009°49'713.4
2017-Nov-23 23:00N 39°12' W 009°50'713.6
2017-Nov-23 22:30N 39°05' W 009°51'713.4
2017-Nov-23 22:00N 38°58' W 009°51'713.5
2017-Nov-23 21:31N 38°52' W 009°51'713.4
2017-Nov-23 21:00N 38°45' W 009°52'713.1
2017-Nov-23 20:30N 38°39' W 009°50'713.2
2017-Nov-23 20:00N 38°32' W 009°48'612.9
2017-Nov-23 19:30N 38°26' W 009°46'713.2
2017-Nov-23 19:01N 38°19' W 009°45'713.1
2017-Nov-23 18:30N 38°13' W 009°43'713.3
2017-Nov-23 18:00N 38°06' W 009°41'713.3
2017-Nov-23 17:30N 37°60' W 009°39'813.4
2017-Nov-23 16:56N 37°53' W 009°37'613.4
2017-Nov-23 16:29N 37°47' W 009°35'613.3
2017-Nov-23 16:00N 37°41' W 009°33'6712.6
2017-Nov-23 10:43N 36°41' W 008°56'3115.0
2017-Nov-23 08:40N 36°30' W 008°20'313.4
2017-Nov-23 08:29N 36°29' W 008°18'713.9
2017-Nov-23 07:57N 36°27' W 008°09'713.5
2017-Nov-23 07:26N 36°24' W 008°01'713.2
2017-Nov-23 06:53N 36°22' W 007°52'613.3
2017-Nov-23 06:27N 36°20' W 007°46'1213.6
2017-Nov-23 05:35N 36°16' W 007°32'213.4
2017-Nov-23 05:28N 36°15' W 007°30'713.5
2017-Nov-23 04:55N 36°13' W 007°21'713.3
2017-Nov-23 04:25N 36°12' W 007°13'1613.5
2017-Nov-23 03:16N 36°06' W 006°55'4113.8
2017-Nov-23 00:19N 35°57' W 006°06'2614.2
2017-Nov-22 22:31N 35°58' W 005°35'012.3
2017-Nov-22 22:30N 35°58' W 005°35'612.8
2017-Nov-22 22:00N 36°00' W 005°27'611.9
2017-Nov-22 21:30N 36°06' W 005°24'2 1.5
2017-Nov-22 19:54N 36°08' W 005°25'0 0.0
2017-Nov-22 19:30N 36°08' W 005°25'  
2017-Nov-19 23:19N 29°15' W 012°36'1512.6
2017-Nov-19 22:06N 29°02' W 012°46'4812.7
2017-Nov-19 18:20N 28°21' W 013°15'512.9
2017-Nov-19 17:59N 28°18' W 013°18'1012.7
2017-Nov-19 17:14N 28°10' W 013°23'312.4
2017-Nov-19 16:59N 28°07' W 013°25'812.2
2017-Nov-19 16:19N 27°60' W 013°30'412.2
2017-Nov-19 16:00N 27°57' W 013°33'612.3
2017-Nov-19 15:30N 27°53' W 013°38'612.1
2017-Nov-19 15:00N 27°48' W 013°42'612.5
2017-Nov-19 14:30N 27°44' W 013°47'612.8
2017-Nov-19 14:00N 27°39' W 013°52'812.9
2017-Nov-19 13:24N 27°34' W 013°58'513.0
2017-Nov-19 13:00N 27°30' W 014°02'  

Dump ship's entire track history